createdAt,value
2023-05-10T00:00:58.703Z,99517.84
2023-05-10T00:06:00.378Z,99513.28
2023-05-10T00:11:01.897Z,99516.84
2023-05-10T00:16:03.466Z,99522.84
2023-05-10T00:21:05.428Z,99524.41
2023-05-10T00:26:06.764Z,99525.34
2023-05-10T00:31:08.268Z,99522.84
2023-05-10T00:36:09.817Z,99525.13
2023-05-10T00:41:11.205Z,99529.56
2023-05-10T00:46:13.177Z,99527.88
2023-05-10T00:51:14.923Z,99527.59
2023-05-10T00:56:16.968Z,99528.09
2023-05-10T01:01:18.424Z,99534.06
2023-05-10T01:06:19.844Z,99536.56
2023-05-10T01:11:21.897Z,99544.00
2023-05-10T01:16:24.508Z,99542.19
2023-05-10T01:21:39.208Z,99543.13
2023-05-10T01:26:55.222Z,99546.00
2023-05-10T01:32:04.440Z,99554.66
2023-05-10T01:37:11.802Z,99548.56
2023-05-10T01:42:20.832Z,99559.25
2023-05-10T01:47:36.426Z,99564.88
2023-05-10T01:52:42.079Z,99573.16
2023-05-10T01:57:45.510Z,99578.78
2023-05-10T02:02:52.865Z,99582.81
2023-05-10T02:07:55.092Z,99592.34
2023-05-10T02:12:59.794Z,99583.00
2023-05-10T02:18:04.749Z,99580.28
2023-05-10T02:23:08.195Z,99588.53
2023-05-10T02:28:11.402Z,99589.41
2023-05-10T02:33:13.061Z,99605.88
2023-05-10T02:38:15.707Z,99601.16
2023-05-10T02:43:18.940Z,99613.03
2023-05-10T02:48:20.450Z,99613.25
2023-05-10T02:53:34.306Z,99620.75
2023-05-10T02:58:36.440Z,99627.66
2023-05-10T03:03:37.798Z,99616.59
2023-05-10T03:08:39.465Z,99621.25
2023-05-10T03:13:50.790Z,99622.09
2023-05-10T03:19:02.382Z,99628.09
2023-05-10T03:24:09.071Z,99629.97
2023-05-10T03:29:11.473Z,99634.91
2023-05-10T03:34:12.919Z,99647.63
2023-05-10T03:39:14.295Z,99643.91
2023-05-10T03:44:15.782Z,99643.50
2023-05-10T03:49:17.239Z,99653.25
2023-05-10T03:54:18.640Z,99651.16
2023-05-10T03:59:20.195Z,99658.84
2023-05-10T04:04:22.439Z,99664.00
2023-05-10T04:09:23.805Z,99663.16
2023-05-10T04:14:25.512Z,99646.88
2023-05-10T04:19:33.128Z,99647.44
2023-05-10T04:24:34.485Z,99646.53
2023-05-10T04:29:35.853Z,99654.44
2023-05-10T04:34:38.159Z,99658.50
2023-05-10T04:39:42.005Z,99660.19
2023-05-10T04:44:43.729Z,99669.34
2023-05-10T04:49:45.099Z,99678.38
2023-05-10T04:54:46.551Z,99686.13
2023-05-10T04:59:50.265Z,99686.59
2023-05-10T05:04:52.075Z,99684.34
2023-05-10T05:09:53.419Z,99688.16
2023-05-10T05:14:54.786Z,99685.47
2023-05-10T05:19:56.643Z,99687.66
2023-05-10T05:24:59.201Z,99702.13
2023-05-10T05:30:00.648Z,99705.00
2023-05-10T05:35:02.194Z,99706.63
2023-05-10T05:40:04.308Z,99693.75
2023-05-10T05:45:06.546Z,99708.91
2023-05-10T05:50:08.269Z,99702.88
2023-05-10T05:55:09.641Z,99712.81
2023-05-10T06:00:11.422Z,99715.31
2023-05-10T06:05:12.840Z,99721.16
2023-05-10T06:10:14.200Z,99723.34
2023-05-10T06:15:15.986Z,99729.09
2023-05-10T06:20:17.636Z,99735.97
2023-05-10T06:25:19.342Z,99729.09
2023-05-10T06:30:21.162Z,99739.28
2023-05-10T06:35:22.830Z,99744.09
2023-05-10T06:40:24.188Z,99745.81
2023-05-10T06:45:25.562Z,99753.66
2023-05-10T06:50:26.979Z,99763.84
2023-05-10T06:55:28.903Z,99753.19
2023-05-10T07:00:30.471Z,99759.38
2023-05-10T07:05:32.352Z,99766.50
2023-05-10T07:10:33.904Z,99759.84
2023-05-10T07:15:35.222Z,99768.75
2023-05-10T07:20:36.579Z,99776.78
2023-05-10T07:25:38.545Z,99781.19
2023-05-10T07:30:39.976Z,99785.75
2023-05-10T07:35:41.547Z,99779.38
2023-05-10T07:40:43.110Z,99787.31
2023-05-10T07:45:44.554Z,99798.47
2023-05-10T07:50:45.886Z,99790.47
2023-05-10T07:55:57.824Z,99794.25
2023-05-10T08:00:59.182Z,99808.19
2023-05-10T08:06:00.571Z,99808.22
2023-05-10T08:11:01.982Z,99800.78
2023-05-10T08:16:03.472Z,99798.81
2023-05-10T08:21:05.159Z,99802.94
2023-05-10T08:26:06.586Z,99810.28
2023-05-10T08:31:08.000Z,99806.97
2023-05-10T08:36:09.638Z,99812.66
2023-05-10T08:41:11.958Z,99808.63
2023-05-10T08:46:18.276Z,99815.00
2023-05-10T08:51:23.209Z,99820.06
2023-05-10T08:56:25.044Z,99834.88
2023-05-10T09:01:28.775Z,99828.44
2023-05-10T09:06:30.723Z,99834.47
2023-05-10T09:11:32.430Z,99845.09
2023-05-10T09:16:33.849Z,99855.88
2023-05-10T09:21:39.721Z,99857.41
2023-05-10T09:26:49.246Z,99865.50
2023-05-10T09:31:56.167Z,99859.25
2023-05-10T09:37:01.563Z,99861.97
2023-05-10T09:42:08.506Z,99858.81
2023-05-10T09:47:12.849Z,99857.97
2023-05-10T09:52:14.347Z,99852.78
2023-05-10T09:57:23.043Z,99847.56
2023-05-10T10:02:30.264Z,99857.72
2023-05-10T10:07:32.619Z,99866.81
2023-05-10T10:12:34.579Z,99860.88
2023-05-10T10:17:39.470Z,99867.72
2023-05-10T10:22:41.080Z,99863.94
2023-05-10T10:27:54.313Z,99858.03
2023-05-10T10:33:32.967Z,99855.91
2023-05-10T10:38:39.664Z,99856.84
2023-05-10T10:43:41.036Z,99865.84
2023-05-10T10:48:49.280Z,99868.00
2023-05-10T10:53:50.718Z,99870.22
2023-05-10T10:58:54.143Z,99879.06
2023-05-10T11:04:19.458Z,99879.19
2023-05-10T11:09:25.597Z,99890.38
2023-05-10T11:14:26.992Z,99899.44
2023-05-10T11:19:28.983Z,99891.66
2023-05-10T11:24:30.480Z,99901.13
2023-05-10T11:29:31.870Z,99890.41
2023-05-10T11:34:36.114Z,99902.00
2023-05-10T11:39:37.851Z,99900.44
2023-05-10T11:44:39.260Z,99907.97
2023-05-10T11:49:44.763Z,99903.31
2023-05-10T11:54:55.698Z,99911.34
2023-05-10T11:59:58.341Z,99910.69
2023-05-10T12:04:59.959Z,99922.41
2023-05-10T12:10:16.219Z,99910.13
2023-05-10T12:15:20.670Z,99913.09
2023-05-10T12:20:23.864Z,99918.19
2023-05-10T12:25:31.408Z,99920.00
2023-05-10T12:30:34.181Z,99914.34
2023-05-10T12:35:45.573Z,99913.59
2023-05-10T12:40:46.930Z,99923.63
2023-05-10T12:45:49.654Z,99920.03
2023-05-10T12:50:51.449Z,99913.41
2023-05-10T12:55:52.900Z,99926.41
2023-05-10T13:00:54.748Z,99932.53
2023-05-10T13:05:56.144Z,99926.09
2023-05-10T13:10:57.494Z,99924.75
2023-05-10T13:15:58.818Z,99925.34
2023-05-10T13:21:00.264Z,99923.28
2023-05-10T13:26:01.600Z,99928.06
2023-05-10T13:31:02.950Z,99928.63
2023-05-10T13:36:04.634Z,99933.88
2023-05-10T13:41:05.962Z,99936.50
2023-05-10T13:46:07.353Z,99930.53
2023-05-10T13:51:08.850Z,99924.34
2023-05-10T13:56:10.248Z,99927.75
2023-05-10T14:01:12.900Z,99928.66
2023-05-10T14:06:14.545Z,99931.53
2023-05-10T14:11:16.190Z,99924.63
2023-05-10T14:16:17.608Z,99919.00
2023-05-10T14:21:19.012Z,99909.53
2023-05-10T14:26:21.606Z,99915.34
2023-05-10T14:31:25.458Z,99920.81
2023-05-10T14:36:26.928Z,99920.16
2023-05-10T14:41:28.518Z,99918.84
2023-05-10T14:46:30.802Z,99919.56
2023-05-10T14:51:32.621Z,99913.25
2023-05-10T14:56:34.052Z,99917.50
2023-05-10T15:01:38.301Z,99910.81
2023-05-10T15:06:40.116Z,99898.63
2023-05-10T15:11:41.440Z,99903.84
2023-05-10T15:16:42.857Z,99896.72
2023-05-10T15:21:45.454Z,99892.66
2023-05-10T15:26:46.881Z,99890.78
2023-05-10T15:31:49.019Z,99895.28
2023-05-10T15:36:50.430Z,99909.91
2023-05-10T15:41:51.963Z,99915.56
2023-05-10T15:46:53.343Z,99919.44
2023-05-10T15:51:54.726Z,99924.69
2023-05-10T15:56:56.207Z,99927.72
2023-05-10T16:01:57.609Z,99929.88
2023-05-10T16:06:58.997Z,99933.34
2023-05-10T16:12:00.402Z,99924.31
2023-05-10T16:17:03.147Z,99939.41
2023-05-10T16:22:05.054Z,99937.34
2023-05-10T16:27:06.971Z,99945.16
2023-05-10T16:32:08.306Z,99951.97
2023-05-10T16:37:09.864Z,99946.41
2023-05-10T16:42:11.210Z,99954.38
2023-05-10T16:47:12.567Z,99949.88
2023-05-10T16:52:13.916Z,99953.47
2023-05-10T16:57:15.321Z,99955.09
2023-05-10T17:02:16.852Z,99961.91
2023-05-10T17:07:18.973Z,99964.41
2023-05-10T17:12:20.392Z,99958.03
2023-05-10T17:17:21.914Z,99965.09
2023-05-10T17:22:23.331Z,99963.63
2023-05-10T17:27:24.690Z,99973.00
2023-05-10T17:32:26.177Z,99972.22
2023-05-10T17:37:27.642Z,99979.09
2023-05-10T17:42:28.994Z,99983.78
2023-05-10T17:47:31.337Z,99978.41
2023-05-10T17:52:33.668Z,99976.84
2023-05-10T17:57:37.915Z,99986.78
2023-05-10T18:02:39.267Z,99992.84
2023-05-10T18:07:40.618Z,99988.09
2023-05-10T18:12:42.063Z,99992.06
2023-05-10T18:17:43.432Z,100000.94
2023-05-10T18:22:44.787Z,100003.47
2023-05-10T18:27:46.137Z,100003.78
2023-05-10T18:32:47.662Z,100005.81
2023-05-10T18:37:49.083Z,100002.66
2023-05-10T18:42:50.552Z,100008.59
2023-05-10T18:47:51.906Z,100013.84
2023-05-10T18:52:53.632Z,100012.34
2023-05-10T18:57:55.080Z,100012.72
2023-05-10T19:02:56.553Z,100010.69
2023-05-10T19:07:57.939Z,100021.97
2023-05-10T19:12:59.279Z,100032.69
2023-05-10T19:18:00.718Z,100030.78
2023-05-10T19:28:10.329Z,100032.88
2023-05-10T19:33:12.531Z,100039.31
2023-05-10T19:38:13.993Z,100048.47
2023-05-10T19:43:15.996Z,100052.50
2023-05-10T19:48:17.500Z,100049.78
2023-05-10T19:53:18.907Z,100063.59
2023-05-10T19:58:20.253Z,100074.28
2023-05-10T20:03:21.623Z,100065.69
2023-05-10T20:08:22.976Z,100078.56
2023-05-10T20:13:24.922Z,100071.03
2023-05-10T20:18:26.808Z,100074.41
2023-05-10T20:23:28.182Z,100078.19
2023-05-10T20:28:29.810Z,100079.31
2023-05-10T20:33:31.245Z,100074.19
2023-05-10T20:38:32.655Z,100076.50
2023-05-10T20:43:34.059Z,100072.53
2023-05-10T20:48:35.502Z,100072.22
2023-05-10T20:53:36.891Z,100072.53
2023-05-10T20:58:38.364Z,100068.41
2023-05-10T21:03:39.719Z,100072.03
2023-05-10T21:08:41.059Z,100073.88
2023-05-10T21:13:42.415Z,100065.16
2023-05-10T21:18:43.827Z,100066.44
2023-05-10T21:23:48.338Z,100062.72
2023-05-10T21:28:49.738Z,100076.13
2023-05-10T21:33:51.402Z,100068.59
2023-05-10T21:38:52.816Z,100071.94
2023-05-10T21:43:54.203Z,100066.38
2023-05-10T21:48:55.548Z,100061.81
2023-05-10T21:53:56.972Z,100061.63
2023-05-10T21:58:58.303Z,100059.13
2023-05-10T22:03:59.968Z,100062.06
2023-05-10T22:09:01.411Z,100065.44
2023-05-10T22:14:02.830Z,100063.38
2023-05-10T22:19:04.371Z,100058.19
2023-05-10T22:24:05.998Z,100056.13
2023-05-10T22:29:07.375Z,100065.13
2023-05-10T22:34:08.747Z,100067.22
2023-05-10T22:39:10.104Z,100068.69
2023-05-10T22:44:11.414Z,100072.47
2023-05-10T22:49:13.254Z,100076.25
2023-05-10T22:54:14.665Z,100077.13
2023-05-10T22:59:16.483Z,100075.22
2023-05-10T23:04:17.948Z,100077.31
2023-05-10T23:09:19.310Z,100080.69
2023-05-10T23:14:20.629Z,100084.44
2023-05-10T23:19:21.948Z,100087.16
2023-05-10T23:24:23.321Z,100093.19
2023-05-10T23:29:26.183Z,100095.66
2023-05-10T23:34:27.538Z,100087.75
2023-05-10T23:39:28.916Z,100087.13
2023-05-10T23:44:30.323Z,100084.63
2023-05-10T23:49:31.640Z,100089.38
2023-05-10T23:54:33.214Z,100087.94
2023-05-10T23:59:34.526Z,100090.63
